• Join FlightAware (Why Join?)
  • Login
  • US Flag 
04:16PM EDT


 

Airport Tracker/Info


-or-


 

Live Flight TrackerFlight Track Log ✈ UAL5999 ✈ 07-Apr-2014 ✈ KIND - KDEN

Flight Track Log - Related Links

Times and Time Zones

All times are in EDT time to prevent confusion due to time zone crossing. See the UAL5999 flight status page for this flight to view local times or setup timezone preferences in your user account.

Time Position Orientation Groundspeed Altitude Reporting Facility
EDT Latitude Longitude Course Direction KTS MPH feet Rate Location/Type
08:22PM 39.7333 -86.3000 252° West 148 170 1,500  Level Indianapolis TRACON
08:23PM 39.7500 -86.2667 33° Northeast 149 171 3,500 2,460 Climbing Indianapolis TRACON
08:24PM 39.7631 -86.2472 49° Northeast 176 203 4,500 1,800 Climbing Indianapolis Center
08:25PM 39.7856 -86.3036 297° West 233 268 6,300 2,580 Climbing Indianapolis Center
08:26PM 39.5877 -86.8123 256° West  Level FlightAware Approximate
08:26PM 39.7558 -86.4083 250° West 263 303 9,800  Level Indianapolis Center
08:27PM 39.5537 -86.9426 237° Southwest  Level FlightAware Approximate
08:27PM 39.7278 -86.4964 248° West 263 303 11,700  Level Indianapolis Center
08:28PM 39.5192 -87.0735 252° West  Level FlightAware Approximate
08:28PM 39.6972 -86.6014 249° West 309 356 13,000  Level Indianapolis Center
08:29PM 39.6911 -86.7233 266° West 337 388 14,300 1,380 Climbing Indianapolis Center
08:30PM 39.6867 -86.8497 267° West 344 396 15,900 1,860 Climbing Indianapolis Center
08:31PM 39.6811 -86.9778 267° West 352 405 18,200 1,740 Climbing Indianapolis Center
08:32PM 39.6756 -87.1036 267° West 352 405 19,500 1,380 Climbing Indianapolis Center
08:33PM 39.6683 -87.2597 267° West 359 413 21,100 1,500 Climbing Indianapolis Center
08:34PM 39.6619 -87.3919 266° West 363 418 22,600 1,380 Climbing Indianapolis Center
08:35PM 39.6564 -87.5239 267° West 364 419 24,000 1,380 Climbing Indianapolis Center
08:36PM 39.6500 -87.6561 266° West 367 422 25,500 1,320 Climbing Indianapolis Center
08:38PM 39.6372 -87.9211 267° West 368 423 28,200 1,320 Climbing Indianapolis Center
08:39PM 39.6292 -88.0664 266° West 367 422 29,600 1,140 Climbing Indianapolis Center
08:40PM 39.6217 -88.1764 265° West 368 423 30,500 1,140 Climbing Kansas City Center
08:41PM 39.6386 -88.3089 279° West 372 428 31,800 1,380 Climbing Kansas City Center
08:42PM 39.6653 -88.4442 284° West 366 421 33,400 1,320 Climbing Kansas City Center
08:43PM 39.6894 -88.5667 284° West 356 410 34,600 1,140 Climbing Kansas City Center
08:44PM 39.7156 -88.6881 286° West 354 407 35,700 660 Climbing Kansas City Center
08:45PM 39.7381 -88.8081 284° West 347 399 36,000 60 Climbing Kansas City Center
08:47PM 39.7889 -89.0706 284° West 384 442 36,000  Level Chicago Center
08:48PM 39.8153 -89.2119 284° West 400 460 36,000  Level Chicago Center
08:49PM 39.8425 -89.3578 284° West 414 476 36,000  Level Chicago Center
08:50PM 39.8683 -89.5031 283° West 411 473 36,000  Level Chicago Center
08:51PM 39.8964 -89.6489 284° West 413 475 36,000  Level Chicago Center
08:52PM 39.9233 -89.7958 283° West 415 478 36,000  Level Chicago Center
08:53PM 39.9544 -89.9739 283° West 414 476 36,000  Level Kansas City Center
08:54PM 39.9814 -90.1219 283° West 414 476 36,000  Level Kansas City Center
08:55PM 40.0069 -90.2719 283° West 416 479 36,000  Level Kansas City Center
08:56PM 40.0342 -90.4206 283° West 418 481 36,000  Level Kansas City Center
08:57PM 40.0600 -90.5714 283° West 419 482 36,000  Level Kansas City Center
08:58PM 40.0931 -90.7542 283° West 426 490 36,000  Level Kansas City Center
08:59PM 40.1178 -90.9033 282° West 426 490 36,000  Level Kansas City Center
09:00PM 40.1431 -91.0531 283° West 425 489 36,000  Level Kansas City Center
09:02PM 40.1678 -91.2008 282° West 425 489 36,000  Level Kansas City Center
09:03PM 40.1925 -91.3506 282° West 425 489 36,000  Level Kansas City Center
09:04PM 40.2178 -91.4997 283° West 425 489 36,000  Level Kansas City Center
09:05PM 40.2419 -91.6489 282° West 424 488 36,000  Level Kansas City Center
09:06PM 40.2697 -91.8281 282° West 424 488 36,000  Level Kansas City Center
09:07PM 40.2953 -91.9786 283° West 424 488 36,000  Level Kansas City Center
09:08PM 40.3189 -92.1283 282° West 425 489 36,000  Level Kansas City Center
09:09PM 40.3425 -92.2772 282° West 424 488 36,000  Level Kansas City Center
09:10PM 40.3683 -92.4414 282° West 424 488 36,000  Level Kansas City Center
09:11PM 40.3917 -92.5911 282° West 423 487 36,000  Level Kansas City Center
09:12PM 40.4147 -92.7481 281° West 421 484 36,000  Level Kansas City Center
09:14PM 40.4572 -93.0208 282° West 432 497 36,000  Level Minneapolis Center
09:15PM 40.4861 -93.2078 282° West 436 502 36,000  Level Minneapolis Center
09:16PM 40.5081 -93.3608 281° West 435 501 36,000  Level Minneapolis Center
09:17PM 40.5283 -93.5139 280° West 433 498 36,000  Level Minneapolis Center
09:18PM 40.5517 -93.6661 281° West 429 494 36,000  Level Minneapolis Center
09:19PM 40.5742 -93.8178 281° West 429 494 36,000  Level Minneapolis Center
09:20PM 40.6042 -94.0019 282° West 429 494 36,000  Level Minneapolis Center
09:21PM 40.6539 -94.1450 295° West 430 495 36,000  Level Minneapolis Center
09:22PM 40.7019 -94.2883 294° West 430 495 36,000  Level Minneapolis Center
09:23PM 40.7500 -94.4356 293° West 433 498 36,000  Level Minneapolis Center
09:24PM 40.8042 -94.5956 294° West 434 499 36,000  Level Minneapolis Center
09:25PM 40.8506 -94.7431 293° West 434 499 36,000  Level Minneapolis Center
09:26PM 40.8981 -94.8878 294° West 434 499 36,000  Level Minneapolis Center
09:27PM 40.9450 -95.0322 293° West 431 496 36,000  Level Minneapolis Center
09:28PM 40.9914 -95.1789 293° West 431 496 36,000  Level Minneapolis Center
09:29PM 41.0386 -95.3253 293° West 432 497 36,000  Level Minneapolis Center
09:30PM 41.0953 -95.4986 293° West 431 496 36,000  Level Minneapolis Center
09:31PM 41.1403 -95.6392 293° West 431 496 36,000  Level Minneapolis Center
09:32PM 41.1894 -95.7864 294° West 432 497 36,000  Level Minneapolis Center
09:33PM 41.2367 -95.9339 293° West 433 498 36,000  Level Minneapolis Center
09:34PM 41.2836 -96.0783 293° West 431 496 36,000  Level Minneapolis Center
09:35PM 41.3275 -96.2233 292° West 427 491 36,000  Level Minneapolis Center
09:36PM 41.3797 -96.3847 293° West 425 489 36,000  Level Minneapolis Center
09:37PM 41.4264 -96.5283 293° West 425 489 36,000  Level Minneapolis Center
09:38PM 41.4303 -96.6833 272° West 423 487 36,000  Level Minneapolis Center
09:39PM 41.4261 -96.8400 268° West 423 487 36,000  Level Minneapolis Center
09:40PM 41.4211 -96.9956 268° West 423 487 36,000  Level Minneapolis Center
09:41PM 41.4158 -97.1842 268° West 423 487 36,000  Level Minneapolis Center
09:42PM 41.4114 -97.3417 268° West 423 487 36,000  Level Minneapolis Center
09:43PM 41.4067 -97.4978 268° West 423 487 36,000  Level Minneapolis Center
09:44PM 41.4003 -97.6550 267° West 424 488 36,000  Level Minneapolis Center
09:45PM 41.3964 -97.8114 268° West 423 487 36,000  Level Minneapolis Center
09:47PM 41.3900 -97.9675 267° West 424 488 36,000  Level Minneapolis Center
09:48PM 41.3842 -98.1383 267° West 424 488 36,000  Level Minneapolis Center
09:49PM 41.3772 -98.2953 267° West 424 488 36,000  Level Minneapolis Center
09:50PM 41.3517 -98.4508 258° West 431 496 36,000  Level Minneapolis Center
09:51PM 41.3081 -98.6261 252° West 443 510 36,000  Level Minneapolis Center
09:52PM 41.2689 -98.7844 252° West 448 516 36,000  Level Minneapolis Center
09:53PM 41.2292 -98.9419 252° West 449 517 36,000  Level Minneapolis Center
09:54PM 41.1908 -99.1006 252° West 449 517 36,000  Level Minneapolis Center
09:55PM 41.1508 -99.2594 252° West 449 517 36,000  Level Minneapolis Center
09:56PM 41.1106 -99.4172 251° West 449 517 36,000  Level Minneapolis Center
09:56PM 41.0889 -99.4992 251° West 451 519 36,000  Level Denver Center
09:57PM 41.0500 -99.6731 254° West 454 522 36,000  Level Denver Center
09:58PM 41.0333 -99.8322 262° West 446 513 36,000  Level Denver Center
09:59PM 41.0111 -100.0147 261° West 446 513 36,000  Level Denver Center
10:00PM 40.9953 -100.1453 261° West 448 516 36,000  Level Denver Center
10:01PM 40.9686 -100.3578 261° West 457 526 36,000  Level Denver Center
10:02PM 40.9481 -100.5183 260° West 460 529 36,000  Level Denver Center
10:03PM 40.9242 -100.7017 260° West 462 532 36,000  Level Denver Center
10:04PM 40.9033 -100.8542 260° West 460 529 36,000  Level Denver Center
10:06PM 40.8806 -101.0369 261° West 458 527 36,000  Level Denver Center
10:07PM 40.8592 -101.1922 260° West 455 524 36,000 -420 Level Denver Center
10:08PM 40.8344 -101.3728 260° West 454 522 35,200 -1,260 Descending Denver Center
10:09PM 40.8164 -101.5156 261° West 415 478 33,500 -1,440 Descending Denver Center
10:10PM 40.7928 -101.6831 260° West 413 475 32,000 -660 Descending Denver Center
10:11PM 40.7692 -101.8544 260° West 424 488 32,000  Level Denver Center
10:12PM 40.7447 -102.0292 260° West 431 496 32,000  Level Denver Center
10:13PM 40.7214 -102.1811 259° West 440 506 32,000  Level Denver Center
10:14PM 40.6972 -102.3625 260° West 447 514 32,000  Level Denver Center
10:15PM 40.6744 -102.5169 259° West 448 516 32,000  Level Denver Center
10:16PM 40.6478 -102.6958 259° West 448 516 32,000  Level Denver Center
10:17PM 40.6242 -102.8581 259° West 450 518 32,000  Level Denver Center
10:18PM 40.5997 -103.0203 259° West 451 519 32,000  Level Denver Center
10:19PM 40.5753 -103.1817 259° West 453 521 32,000 -240 Level Denver Center
10:20PM 40.5514 -103.3422 259° West 452 520 31,600 -840 Descending Denver Center
10:21PM 40.5267 -103.4989 258° West 445 512 30,300 -2,160 Descending Denver Center
10:22PM 40.4969 -103.6883 258° West 445 512 27,200 -2,520 Descending Denver Center
10:23PM 40.4686 -103.8394 256° West 432 497 25,100 -2,040 Descending Denver Center
10:24PM 40.3881 -103.9569 228° Southwest 441 507 23,100 -2,460 Descending Denver Center
10:25PM 40.2961 -104.0725 224° Southwest 423 487 20,100 -2,160 Descending Denver Center
10:26PM 40.2150 -104.1581 219° Southwest 377 434 18,700 -1,620 Descending Denver Center
10:27PM 40.1417 -104.2381 220° Southwest 341 392 16,800 -1,620 Descending Denver Center
10:28PM 40.0664 -104.3200 220° Southwest 327 376 15,500 -1,140 Descending Denver Center
10:29PM 40.0011 -104.3897 219° Southwest 307 353 14,500 -1,020 Descending Denver Center
10:30PM 39.9358 -104.4603 220° Southwest 306 352 13,400 -1,380 Descending Denver Center
10:32PM 39.8544 -104.4994 200° South 304 350 11,700 -1,380 Descending Denver Center
10:33PM 39.7733 -104.5008 181° South 293 337 10,600 -1,080 Descending Denver Center
10:34PM 39.6992 -104.5064 183° South 272 313 9,600 -1,020 Descending Denver Center
10:35PM 39.6828 -104.5883 255° West 225 259 8,600 -900 Descending Denver Center
10:36PM 39.7228 -104.6261 324° Northwest 186 214 7,800 -900 Descending Denver Center
10:37PM 39.7656 -104.6436 343° North 170 196 6,800 -1,020 Descending Denver Center
10:38PM 39.8081 -104.6422 North 146 168 5,800 -780 Descending Denver Center
10:39PM 39.8453 -104.6414 North 142 163 5,300 -540 Descending Denver Center